Time;durP1;ratioP1;P1;durP2;ratioP2;P2;SDS_P1;SDS_P2;PMS_P1;PMS_P2;Temp;Humidity;BMP_temperature;BMP_pressure;BME280_temperature;BME280_humidity;BME280_pressure;Samples;Min_cycle;Max_cycle;Signal;HPM_P1;HPM_P2
2023/07/08 00:00:47;;;;;;;20.95;18.00;;;;;;;21.04;47.75;100801.88;4971104;28;98468;-69
2023/07/08 00:03:14;;;;;;;19.83;17.88;;;;;;;20.96;47.70;100786.41;4961585;28;97144;-69
2023/07/08 00:05:40;;;;;;;18.15;16.67;;;;;;;21.01;47.94;100796.75;4966473;28;96946;-69
2023/07/08 00:08:07;;;;;;;18.30;16.90;;;;;;;20.96;48.12;100805.06;4967965;28;98706;-69
2023/07/08 00:10:33;;;;;;;19.80;17.88;;;;;;;20.89;48.21;100798.47;4982536;28;98408;-70
2023/07/08 00:12:58;;;;;;;18.63;16.63;;;;;;;20.85;48.57;100801.44;4981607;28;96847;-69
2023/07/08 00:15:29;;;;;;;19.08;17.20;;;;;;;20.82;48.82;100801.66;4974010;28;97570;-70
2023/07/08 00:17:55;;;;;;;18.92;17.38;;;;;;;20.77;48.80;100799.34;4964391;28;98888;-69
2023/07/08 00:20:38;;;;;;;19.40;17.65;;;;;;;20.75;48.90;100795.91;4961432;28;98724;-69
2023/07/08 00:23:03;;;;;;;19.75;18.15;;;;;;;20.63;48.98;100789.59;4981051;28;96838;-69
2023/07/08 00:25:30;;;;;;;18.67;17.08;;;;;;;20.66;49.19;100799.22;4982073;28;97210;-69
2023/07/08 00:27:56;;;;;;;18.67;17.00;;;;;;;20.62;49.26;100801.22;4971465;28;98751;-69
2023/07/08 00:30:26;;;;;;;19.25;17.52;;;;;;;20.60;49.31;100797.81;4971729;28;98969;-69
2023/07/08 00:32:55;;;;;;;19.15;17.38;;;;;;;20.56;49.52;100796.31;4968389;28;96715;-69
2023/07/08 00:35:36;;;;;;;20.48;18.77;;;;;;;20.54;49.48;100800.91;4968755;28;97036;-70
2023/07/08 00:38:15;;;;;;;20.20;18.25;;;;;;;20.49;49.71;100795.00;4966371;28;98969;-69
2023/07/08 00:41:06;;;;;;;19.98;18.27;;;;;;;20.43;49.73;100787.41;4966519;28;98685;-69
2023/07/08 00:43:38;;;;;;;20.00;18.13;;;;;;;20.40;49.92;100787.63;4970415;28;97000;-69
2023/07/08 00:46:18;;;;;;;20.17;18.23;;;;;;;20.34;49.97;100789.75;4954331;28;96985;-69
2023/07/08 00:48:45;;;;;;;20.35;17.88;;;;;;;20.27;50.49;100788.44;4963992;28;100882;-70
2023/07/08 00:51:10;;;;;;;20.45;18.73;;;;;;;20.24;50.65;100785.97;4972897;28;96945;-69
2023/07/08 00:53:37;;;;;;;19.23;17.55;;;;;;;20.19;50.64;100790.78;4990890;28;96823;-69
2023/07/08 00:56:40;;;;;;;20.40;18.83;;;;;;;20.13;50.50;100791.19;4969277;28;97210;-69
2023/07/08 00:59:21;;;;;;;19.08;17.17;;;;;;;20.09;50.60;100793.19;4953905;28;97909;-69
2023/07/08 01:01:48;;;;;;;20.83;17.98;;;;;;;20.06;50.88;100789.88;4969632;28;98012;-69
2023/07/08 01:04:22;;;;;;;19.30;17.45;;;;;;;20.05;51.29;100793.50;4977750;28;96943;-69
2023/07/08 01:06:56;;;;;;;19.23;17.67;;;;;;;19.93;50.98;100784.50;4976756;28;97944;-69
2023/07/08 01:09:25;;;;;;;19.80;18.00;;;;;;;19.91;51.23;100794.41;4977212;28;99072;-69
2023/07/08 01:11:51;;;;;;;20.30;18.48;;;;;;;19.88;51.35;100781.28;4970228;28;98283;-69
2023/07/08 01:14:18;;;;;;;19.65;17.92;;;;;;;19.95;51.11;100787.06;4979402;28;96991;-69
2023/07/08 01:16:44;;;;;;;20.67;18.27;;;;;;;19.90;51.40;100788.22;4973324;28;97456;-69
2023/07/08 01:19:16;;;;;;;20.38;18.38;;;;;;;19.86;51.51;100784.03;4986605;28;98940;-69
2023/07/08 01:21:54;;;;;;;19.60;18.00;;;;;;;19.86;51.54;100792.03;5011295;28;97275;-69
2023/07/08 01:24:19;;;;;;;20.35;18.38;;;;;;;19.81;51.67;100777.28;5003955;28;97686;-69
2023/07/08 01:26:45;;;;;;;20.20;18.40;;;;;;;19.86;51.74;100783.19;5010108;28;98306;-69
2023/07/08 01:29:12;;;;;;;20.40;18.83;;;;;;;19.70;52.33;100769.19;5009313;28;97658;-69
2023/07/08 01:31:39;;;;;;;19.92;18.20;;;;;;;19.58;52.87;100768.13;5010187;28;98488;-69
2023/07/08 01:34:05;;;;;;;20.38;18.33;;;;;;;19.55;52.85;100761.19;5010640;28;96659;-69
2023/07/08 01:36:38;;;;;;;21.13;19.33;;;;;;;19.43;52.97;100751.31;5010657;28;96905;-69
2023/07/08 01:39:04;;;;;;;21.80;19.80;;;;;;;19.46;53.42;100777.78;4992161;28;100409;-69
2023/07/08 01:41:30;;;;;;;19.67;17.90;;;;;;;19.45;53.39;100781.34;5009352;28;98456;-69
2023/07/08 01:43:55;;;;;;;19.35;17.80;;;;;;;19.48;53.29;100780.31;5010830;28;96930;-69
2023/07/08 01:46:23;;;;;;;20.90;18.92;;;;;;;19.43;53.47;100781.47;5010517;28;97312;-69
2023/07/08 01:48:52;;;;;;;21.42;19.30;;;;;;;19.32;53.82;100768.00;5009010;28;100542;-69
2023/07/08 01:51:18;;;;;;;19.48;18.02;;;;;;;19.19;54.19;100770.56;4989246;28;100252;-69
2023/07/08 01:53:43;;;;;;;20.85;19.05;;;;;;;19.20;54.19;100774.09;5002035;28;96791;-69
2023/07/08 01:56:11;;;;;;;20.10;18.40;;;;;;;19.13;54.54;100770.09;5010986;28;96781;-69
2023/07/08 01:58:37;;;;;;;21.05;19.38;;;;;;;19.07;54.71;100776.66;5006977;28;101215;-69
2023/07/08 02:01:03;;;;;;;25.80;20.25;;;;;;;19.10;54.70;100781.78;5009038;28;99216;-69
2023/07/08 02:03:28;;;;;;;21.55;19.52;;;;;;;19.08;54.67;100777.50;5010329;28;97569;-70
2023/07/08 02:05:55;;;;;;;20.67;18.65;;;;;;;18.94;55.12;100775.72;5003690;28;97273;-69
2023/07/08 02:08:21;;;;;;;21.95;20.05;;;;;;;18.96;54.98;100774.66;5023598;28;100175;-69
2023/07/08 02:10:56;;;;;;;21.33;19.42;;;;;;;19.01;55.00;100777.03;5001963;28;98442;-69
2023/07/08 02:13:22;;;;;;;20.98;18.73;;;;;;;18.99;55.16;100779.81;5011862;28;96858;-69
2023/07/08 02:15:49;;;;;;;21.00;18.98;;;;;;;18.90;55.22;100777.69;5012348;28;97284;-69
2023/07/08 02:18:15;;;;;;;19.88;18.27;;;;;;;18.89;55.10;100769.81;5012977;28;98698;-69
2023/07/08 02:20:42;;;;;;;20.55;19.00;;;;;;;18.86;55.15;100770.84;5013123;28;98477;-69
2023/07/08 02:23:08;;;;;;;21.00;19.33;;;;;;;18.93;54.95;100774.00;5011850;28;97858;-69
2023/07/08 02:25:34;;;;;;;20.70;18.98;;;;;;;18.99;54.89;100778.94;5012186;28;96968;-69
2023/07/08 02:27:59;;;;;;;19.77;18.23;;;;;;;18.95;54.91;100780.94;5012760;28;98623;-69
2023/07/08 02:30:25;;;;;;;20.85;19.08;;;;;;;18.84;55.29;100779.88;5013958;28;96789;-69
2023/07/08 02:32:56;;;;;;;20.92;18.83;;;;;;;18.53;56.01;100779.06;5013622;28;96793;-69
2023/07/08 02:35:27;;;;;;;19.95;18.05;;;;;;;18.50;56.15;100777.44;5013118;28;96781;-69
2023/07/08 02:37:54;;;;;;;19.63;17.83;;;;;;;18.66;55.62;100784.47;5013768;28;97689;-69
2023/07/08 02:40:20;;;;;;;21.27;19.42;;;;;;;18.67;55.42;100775.53;5013561;28;98430;-69
2023/07/08 02:42:46;;;;;;;21.13;19.00;;;;;;;18.67;55.64;100778.22;5013692;28;97393;-69
2023/07/08 02:45:12;;;;;;;20.58;18.42;;;;;;;18.67;55.51;100775.53;5012406;28;96898;-69
2023/07/08 02:47:38;;;;;;;19.67;17.88;;;;;;;18.73;55.36;100773.44;5012904;28;98666;-69
2023/07/08 02:50:04;;;;;;;20.90;18.85;;;;;;;18.69;55.46;100785.16;5013856;28;98209;-69
2023/07/08 02:52:30;;;;;;;20.67;18.52;;;;;;;18.66;55.56;100774.69;5011343;28;98109;-69
2023/07/08 02:54:56;;;;;;;19.85;17.75;;;;;;;18.62;55.43;100773.19;5013227;28;96905;-69
2023/07/08 02:57:21;;;;;;;22.05;17.92;;;;;;;18.70;55.33;100775.34;5012779;28;98994;-69
2023/07/08 02:59:47;;;;;;;20.88;18.83;;;;;;;18.68;55.39;100775.47;5013427;28;98226;-69
2023/07/08 03:02:12;;;;;;;20.95;19.15;;;;;;;18.72;55.29;100776.97;5012323;28;97251;-69
2023/07/08 03:04:38;;;;;;;19.80;18.10;;;;;;;18.73;55.24;100776.09;5011187;28;97524;-69
2023/07/08 03:07:04;;;;;;;20.13;18.42;;;;;;;18.73;55.34;100775.16;5013213;28;98947;-69
2023/07/08 03:09:32;;;;;;;20.88;19.05;;;;;;;18.74;55.38;100776.94;5012885;28;98903;-69
2023/07/08 03:11:58;;;;;;;20.63;18.80;;;;;;;18.74;55.35;100782.25;5013191;28;96729;-69
2023/07/08 03:14:24;;;;;;;20.70;18.92;;;;;;;18.69;55.58;100763.03;5012645;28;97235;-69
2023/07/08 03:16:49;;;;;;;21.50;19.60;;;;;;;18.75;55.16;100770.66;5010693;28;100806;-71
2023/07/08 03:19:16;;;;;;;20.02;18.45;;;;;;;18.76;55.29;100772.34;5012512;28;98499;-69
2023/07/08 03:21:42;;;;;;;19.92;17.90;;;;;;;18.80;55.05;100767.72;5012350;28;96699;-69
2023/07/08 03:24:12;;;;;;;20.13;18.40;;;;;;;18.94;54.84;100778.38;5012667;28;97642;-72
2023/07/08 03:26:41;;;;;;;20.58;18.83;;;;;;;19.06;54.40;100784.75;5010298;28;101206;-69
2023/07/08 03:29:13;;;;;;;19.88;18.25;;;;;;;19.13;54.40;100764.78;5007816;28;100268;-69
2023/07/08 03:31:39;;;;;;;21.00;19.02;;;;;;;19.19;54.13;100767.88;4994917;28;97002;-69
2023/07/08 03:34:05;;;;;;;19.42;17.92;;;;;;;19.27;53.95;100774.56;5028347;27;97390;-69
2023/07/08 03:36:30;;;;;;;20.42;18.67;;;;;;;19.37;53.71;100765.91;5012030;28;98937;-69
2023/07/08 03:38:57;;;;;;;20.25;18.13;;;;;;;19.44;53.53;100761.88;5012449;28;98392;-69
2023/07/08 03:41:23;;;;;;;19.52;17.75;;;;;;;19.54;53.56;100762.13;5002700;28;97296;-69
2023/07/08 03:43:50;;;;;;;19.42;17.83;;;;;;;19.56;53.56;100765.56;5012681;28;96840;-69
2023/07/08 03:46:20;;;;;;;17.58;16.27;;;;;;;19.64;53.21;100771.25;4980815;28;100777;-69
2023/07/08 03:48:46;;;;;;;18.98;17.02;;;;;;;19.71;52.78;100769.06;5010641;28;98236;-69
2023/07/08 03:51:23;;;;;;;17.70;16.30;;;;;;;19.77;52.45;100768.66;5012880;28;96735;-69
2023/07/08 03:53:51;;;;;;;18.60;17.27;;;;;;;19.80;52.39;100765.78;5012347;28;97190;-69
2023/07/08 03:56:17;;;;;;;18.13;16.63;;;;;;;19.76;52.29;100769.63;5011004;28;97465;-69
2023/07/08 03:58:43;;;;;;;19.20;17.38;;;;;;;19.84;52.19;100770.00;5011052;28;100309;-69
2023/07/08 04:01:17;;;;;;;18.83;17.33;;;;;;;19.98;52.12;100768.19;5011584;28;96776;-69
2023/07/08 04:03:44;;;;;;;18.95;17.42;;;;;;;20.01;51.89;100771.53;5010756;28;97358;-69
2023/07/08 04:06:11;;;;;;;17.75;16.35;;;;;;;19.99;51.67;100768.13;5009010;28;100622;-69
2023/07/08 04:08:37;;;;;;;17.75;16.20;;;;;;;20.10;51.79;100762.06;5011533;28;98593;-69
2023/07/08 04:11:02;;;;;;;17.88;16.33;;;;;;;20.22;51.65;100765.72;5012339;28;97244;-69
2023/07/08 04:13:28;;;;;;;20.08;18.20;;;;;;;20.20;51.49;100764.97;5011979;28;98427;-69
2023/07/08 04:15:59;;;;;;;19.80;17.85;;;;;;;20.28;51.34;100767.97;5011400;28;99127;-69
2023/07/08 04:18:25;;;;;;;18.45;16.90;;;;;;;20.36;51.33;100765.63;5019634;28;98480;-69
2023/07/08 04:20:52;;;;;;;18.98;17.38;;;;;;;20.34;51.14;100757.75;5009220;28;96956;-69
2023/07/08 04:23:18;;;;;;;19.50;17.80;;;;;;;20.48;51.05;100758.63;5009508;28;96894;-69
2023/07/08 04:25:43;;;;;;;19.67;17.70;;;;;;;20.45;51.05;100762.34;5011704;28;98835;-69
2023/07/08 04:28:09;;;;;;;18.92;17.25;;;;;;;20.65;50.92;100746.81;5010111;28;98283;-69
2023/07/08 04:30:40;;;;;;;20.05;17.95;;;;;;;20.77;50.70;100748.66;5001055;28;96853;-70
2023/07/08 04:33:09;;;;;;;19.85;18.15;;;;;;;20.90;50.47;100744.13;5006505;28;97900;-69
2023/07/08 04:35:38;;;;;;;19.38;17.52;;;;;;;21.05;49.90;100760.88;5011168;28;98608;-69
2023/07/08 04:38:09;;;;;;;19.23;17.42;;;;;;;21.13;49.54;100747.84;4999428;28;98460;-69
2023/07/08 04:40:39;;;;;;;;;;;;;;;21.32;49.14;100754.53;5028041;28;96707;-69
2023/07/08 04:43:08;;;;;;;18.70;17.08;;;;;;;21.49;48.87;100751.50;5010429;28;97348;-69
2023/07/08 04:45:34;;;;;;;19.02;17.40;;;;;;;21.63;48.82;100745.16;5010888;28;98947;-70
2023/07/08 04:48:00;;;;;;;19.85;18.00;;;;;;;21.74;48.30;100749.72;5011826;28;98172;-70
2023/07/08 04:50:26;;;;;;;19.10;17.90;;;;;;;21.86;47.90;100748.81;5011193;28;96788;-70
2023/07/08 04:52:51;;;;;;;17.98;16.40;;;;;;;22.02;47.99;100754.72;5003312;28;97509;-70
2023/07/08 04:55:18;;;;;;;18.52;16.90;;;;;;;22.22;47.71;100747.03;5010347;28;98703;-70
2023/07/08 04:57:44;;;;;;;19.40;17.90;;;;;;;22.29;47.57;100753.63;5011109;28;98307;-70
2023/07/08 05:00:16;;;;;;;18.48;16.92;;;;;;;22.29;47.40;100745.59;5011979;28;97321;-70
2023/07/08 05:02:41;;;;;;;18.45;16.90;;;;;;;22.43;47.12;100748.09;5011189;28;97109;-70
2023/07/08 05:05:07;;;;;;;17.90;16.25;;;;;;;22.53;47.05;100750.88;5011079;28;98888;-70
2023/07/08 05:07:33;;;;;;;18.38;16.77;;;;;;;22.61;46.81;100751.16;5010936;28;98248;-70
2023/07/08 05:09:58;;;;;;;19.20;17.50;;;;;;;22.45;47.00;100743.44;5011567;28;96825;-70
2023/07/08 05:12:25;;;;;;;17.50;16.20;;;;;;;22.65;46.71;100749.06;5011461;28;96797;-70
2023/07/08 05:14:51;;;;;;;17.73;16.27;;;;;;;22.77;46.73;100745.44;5010539;28;98663;-70
2023/07/08 05:17:16;;;;;;;18.60;17.02;;;;;;;22.73;46.47;100757.38;5011261;28;98582;-70
2023/07/08 05:19:44;;;;;;;18.98;17.15;;;;;;;22.77;46.00;100758.81;5008871;28;97712;-70
2023/07/08 05:22:09;;;;;;;19.30;17.02;;;;;;;22.62;46.34;100741.28;5004064;28;96939;-70
2023/07/08 05:24:35;;;;;;;17.98;16.50;;;;;;;23.03;45.69;100748.75;5009571;28;98747;-70
2023/07/08 05:27:00;;;;;;;18.67;17.27;;;;;;;23.23;45.10;100753.38;5010885;28;98448;-70
2023/07/08 05:29:26;;;;;;;17.73;16.25;;;;;;;23.71;44.65;100753.06;5012443;28;96880;-70
2023/07/08 05:31:51;;;;;;;16.95;15.75;;;;;;;23.99;43.78;100748.09;5011420;28;97381;-70
2023/07/08 05:34:17;;;;;;;18.17;16.42;;;;;;;24.16;43.47;100742.16;5011481;28;98735;-70
2023/07/08 05:36:43;;;;;;;18.45;16.92;;;;;;;24.36;43.09;100745.84;5010561;28;98511;-70
2023/07/08 05:39:08;;;;;;;17.25;15.98;;;;;;;24.59;42.74;100743.91;5010798;28;96794;-70
2023/07/08 05:41:34;;;;;;;17.85;16.40;;;;;;;24.77;42.60;100740.59;5006903;28;97548;-70
2023/07/08 05:43:59;;;;;;;17.45;16.33;;;;;;;25.26;41.50;100749.75;5014880;28;98774;-70
2023/07/08 05:46:25;;;;;;;17.67;16.55;;;;;;;25.72;41.28;100750.97;5009036;28;98232;-70
2023/07/08 05:48:50;;;;;;;17.80;16.48;;;;;;;25.42;40.34;100744.66;5010234;28;97807;-71
2023/07/08 05:51:16;;;;;;;17.95;16.70;;;;;;;25.22;41.02;100741.09;5011318;28;97431;-70
2023/07/08 05:53:42;;;;;;;18.17;16.73;;;;;;;25.78;40.75;100742.34;5009153;28;97598;-70
2023/07/08 05:56:08;;;;;;;19.17;17.23;;;;;;;27.22;38.81;100746.78;5009531;28;98378;-70
2023/07/08 05:58:33;;;;;;;19.33;17.33;;;;;;;28.87;36.05;100750.81;5006888;28;97940;-71
2023/07/08 06:00:59;;;;;;;23.05;20.60;;;;;;;29.95;34.13;100742.94;5008390;28;97133;-71
2023/07/08 06:03:25;;;;;;;21.02;18.90;;;;;;;33.41;29.55;100744.22;5008979;28;98843;-72
2023/07/08 06:05:50;;;;;;;20.70;18.80;;;;;;;37.01;24.83;100742.16;5009436;28;98346;-72
2023/07/08 06:08:16;;;;;;;22.08;20.25;;;;;;;40.65;21.80;100732.94;5001997;28;96985;-72
2023/07/08 06:10:43;;;;;;;18.23;16.63;;;;;;;43.32;19.33;100739.16;5010015;28;96852;-72
2023/07/08 06:13:09;;;;;;;19.55;18.00;;;;;;;45.20;17.68;100730.59;5009559;28;98681;-72
2023/07/08 06:15:35;;;;;;;18.50;17.00;;;;;;;46.07;16.55;100730.72;5009460;28;98481;-72
2023/07/08 06:18:02;;;;;;;18.50;17.00;;;;;;;47.42;15.52;100727.22;5010048;28;96770;-72
2023/07/08 06:20:28;;;;;;;18.90;17.50;;;;;;;48.13;14.96;100718.34;5004214;28;96688;-72
2023/07/08 06:22:53;;;;;;;18.80;17.20;;;;;;;49.12;14.44;100717.72;5008007;28;98589;-72
2023/07/08 06:25:19;;;;;;;19.17;17.40;;;;;;;49.62;13.80;100714.50;5006475;28;98427;-72
2023/07/08 06:27:45;;;;;;;20.15;18.65;;;;;;;50.26;13.69;100711.97;5009474;28;96641;-72
2023/07/08 06:30:11;;;;;;;20.73;19.13;;;;;;;50.67;13.56;100717.59;5010691;28;97030;-72
2023/07/08 06:32:36;;;;;;;19.30;17.90;;;;;;;51.37;13.07;100719.09;5008482;28;99048;-72
2023/07/08 06:35:02;;;;;;;18.52;17.17;;;;;;;52.01;12.96;100716.13;5009317;28;98304;-73
2023/07/08 06:37:28;;;;;;;18.88;17.52;;;;;;;51.57;12.67;100720.56;5009021;28;97755;-72
2023/07/08 06:39:53;;;;;;;19.98;18.08;;;;;;;52.35;12.14;100720.25;5010130;28;96963;-73
2023/07/08 06:42:19;;;;;;;19.23;17.63;;;;;;;53.16;11.71;100705.78;5009400;28;99162;-73
2023/07/08 06:44:54;;;;;;;18.17;16.75;;;;;;;53.97;11.18;100707.00;5008181;28;100684;-72
2023/07/08 06:47:20;;;;;;;17.13;16.00;;;;;;;52.65;11.42;100707.31;5009797;28;96841;-73
2023/07/08 06:49:49;;;;;;;18.58;17.23;;;;;;;52.71;11.14;100706.03;5010618;28;96887;-73
2023/07/08 06:52:14;;;;;;;17.77;16.48;;;;;;;52.32;11.37;100706.06;5009898;28;98839;-72
2023/07/08 06:54:40;;;;;;;17.50;16.42;;;;;;;54.17;10.78;100713.06;5008817;28;98491;-72
2023/07/08 06:57:06;;;;;;;18.30;17.10;;;;;;;55.97;10.38;100708.41;5010545;28;97463;-72
2023/07/08 06:59:32;;;;;;;17.52;16.42;;;;;;;55.47;10.34;100709.41;5010989;28;96795;-72
2023/07/08 07:01:58;;;;;;;18.02;16.52;;;;;;;56.75;9.55;100712.16;5010770;28;99009;-72
2023/07/08 07:04:23;;;;;;;17.90;16.83;;;;;;;57.08;9.43;100706.34;5010287;28;98343;-79
2023/07/08 07:06:49;;;;;;;18.42;17.33;;;;;;;57.43;9.18;100711.41;5005173;28;98656;-80
2023/07/08 07:09:14;;;;;;;18.60;17.30;;;;;;;57.55;8.75;100704.91;5018411;28;97091;-80
2023/07/08 07:11:40;;;;;;;17.65;16.58;;;;;;;58.27;9.46;100699.09;5011931;27;99145;-80
2023/07/08 07:14:05;;;;;;;18.08;16.98;;;;;;;57.14;9.34;100707.78;5015065;28;98328;-81
2023/07/08 07:16:31;;;;;;;17.90;16.75;;;;;;;58.58;8.73;100708.72;5006436;28;96885;-81
2023/07/08 07:18:56;;;;;;;18.17;16.80;;;;;;;58.92;8.66;100713.53;5010327;28;97376;-81
2023/07/08 07:21:22;;;;;;;18.65;17.50;;;;;;;58.14;8.44;100703.22;5004145;28;98690;-80
2023/07/08 07:23:47;;;;;;;17.33;16.15;;;;;;;58.01;8.37;100705.28;5010289;28;98153;-80
2023/07/08 07:26:14;;;;;;;17.75;16.45;;;;;;;57.06;8.81;100714.34;5010179;28;98500;-80
2023/07/08 07:28:39;;;;;;;17.37;16.17;;;;;;;58.29;8.24;100718.50;5010700;28;97168;-81
2023/07/08 07:31:10;;;;;;;17.10;15.90;;;;;;;57.26;8.84;100711.72;5009955;28;99462;-81
2023/07/08 07:33:36;;;;;;;18.08;16.95;;;;;;;58.04;8.57;100715.84;5009465;28;98294;-81
2023/07/08 07:36:02;;;;;;;16.95;15.95;;;;;;;55.30;9.18;100718.84;5009320;28;97002;-81
2023/07/08 07:38:28;;;;;;;16.55;15.15;;;;;;;56.18;8.81;100713.09;5010491;28;96929;-81
2023/07/08 07:40:59;;;;;;;17.33;16.13;;;;;;;57.21;8.85;100712.78;5007650;28;98948;-81
2023/07/08 07:43:25;;;;;;;17.50;16.30;;;;;;;56.10;9.51;100714.88;5008082;28;98804;-80
2023/07/08 07:45:52;;;;;;;17.58;16.38;;;;;;;59.48;7.89;100717.13;5012108;28;96659;-81
2023/07/08 07:48:18;;;;;;;16.90;15.83;;;;;;;59.74;7.30;100705.09;5016322;28;97363;-81
2023/07/08 07:50:46;;;;;;;18.50;17.23;;;;;;;58.00;8.51;100712.94;5012437;28;98535;-82
2023/07/08 07:53:12;;;;;;;18.60;17.48;;;;;;;56.63;8.24;100715.00;5013098;28;98293;-82
2023/07/08 07:55:37;;;;;;;16.98;15.98;;;;;;;58.66;7.54;100708.53;5014453;27;98270;-81
2023/07/08 07:58:04;;;;;;;18.10;16.48;;;;;;;60.03;7.43;100714.91;5012218;28;97106;-82
2023/07/08 08:00:30;;;;;;;19.02;17.92;;;;;;;60.38;7.29;100702.53;5012307;28;98929;-81
2023/07/08 08:02:56;;;;;;;19.50;18.10;;;;;;;60.18;7.60;100704.66;5012497;28;98442;-81
2023/07/08 08:05:21;;;;;;;19.10;17.90;;;;;;;58.78;7.75;100704.75;5012520;28;96598;-82
2023/07/08 08:07:47;;;;;;;19.13;17.90;;;;;;;60.72;7.31;100705.47;5006948;28;97089;-71
2023/07/08 08:10:13;;;;;;;19.93;18.73;;;;;;;57.41;8.04;100702.47;5020185;27;98978;-82
2023/07/08 08:12:39;;;;;;;18.98;17.83;;;;;;;57.84;7.58;100703.66;5013776;28;98459;-83
2023/07/08 08:15:05;;;;;;;19.13;18.00;;;;;;;58.28;8.10;100712.03;5008697;28;96637;-81
2023/07/08 08:17:31;;;;;;;18.07;16.97;;;;;;;58.86;7.84;100695.25;5009845;28;96901;-81
2023/07/08 08:19:56;;;;;;;18.90;17.83;;;;;;;58.97;8.00;100701.13;5008391;28;98935;-83
2023/07/08 08:22:22;;;;;;;17.95;16.67;;;;;;;59.87;7.41;100694.41;5006720;28;98901;-80
2023/07/08 08:24:47;;;;;;;19.45;18.35;;;;;;;59.67;7.36;100700.13;5006901;28;97085;-82
2023/07/08 08:27:16;;;;;;;17.90;16.73;;;;;;;56.77;8.68;100703.38;5010567;28;97328;-83
2023/07/08 08:29:42;;;;;;;17.98;16.88;;;;;;;59.14;7.46;100692.19;5009462;28;99278;-82
2023/07/08 08:32:07;;;;;;;18.88;17.77;;;;;;;58.17;8.23;100700.47;5009316;28;98641;-83
2023/07/08 08:34:33;;;;;;;18.75;17.35;;;;;;;58.25;7.79;100687.34;5008817;28;97181;-83
2023/07/08 08:36:58;;;;;;;17.42;16.42;;;;;;;55.45;8.79;100686.41;5009979;28;96904;-84
2023/07/08 08:39:29;;;;;;;17.17;16.17;;;;;;;50.51;10.47;100691.94;5008548;28;98705;-84
2023/07/08 08:41:55;;;;;;;16.23;15.32;;;;;;;48.98;10.99;100705.66;5013393;28;97912;-81
2023/07/08 08:44:26;;;;;;;16.48;15.35;;;;;;;46.25;12.09;100709.88;5004726;28;98933;-80
2023/07/08 08:47:05;;;;;;;16.35;15.35;;;;;;;45.14;13.11;100707.59;5000811;28;97635;-80
2023/07/08 08:49:44;;;;;;;16.73;15.82;;;;;;;43.16;14.10;100716.06;5006836;28;98696;-81
2023/07/08 08:52:10;;;;;;;17.25;16.05;;;;;;;42.06;15.28;100704.84;5024985;28;98648;-81
2023/07/08 08:54:36;;;;;;;19.88;18.65;;;;;;;40.53;16.24;100716.44;5006171;28;96920;-81
2023/07/08 08:57:20;;;;;;;17.35;16.15;;;;;;;37.27;18.80;100706.47;5004945;28;97780;-82
2023/07/08 08:59:54;;;;;;;18.15;17.02;;;;;;;37.05;18.87;100705.94;5026948;27;99442;-81
2023/07/08 09:02:53;;;;;;;17.75;16.58;;;;;;;36.16;19.40;100715.56;5010010;28;98676;-80
2023/07/08 09:05:19;;;;;;;16.70;15.75;;;;;;;36.30;19.05;100710.06;5006792;28;96927;-80
2023/07/08 09:08:20;;;;;;;16.58;15.50;;;;;;;35.92;19.26;100711.50;5009306;28;97355;-79
2023/07/08 09:11:02;;;;;;;17.05;15.85;;;;;;;34.62;19.82;100724.25;4948089;28;99436;-79
2023/07/08 09:13:33;;;;;;;17.02;16.02;;;;;;;34.14;20.71;100718.63;5001484;28;98384;-80
2023/07/08 09:16:05;;;;;;;17.70;16.70;;;;;;;34.62;19.83;100724.25;5010130;28;96869;-80
2023/07/08 09:18:37;;;;;;;17.88;16.27;;;;;;;34.34;21.03;100721.50;5008939;28;96801;-81
2023/07/08 09:21:10;;;;;;;16.63;15.52;;;;;;;34.79;20.56;100718.47;5006682;28;98667;-79
2023/07/08 09:23:36;;;;;;;17.33;16.00;;;;;;;34.39;20.74;100721.75;5001490;28;98668;-82
2023/07/08 09:26:05;;;;;;;16.77;15.57;;;;;;;34.69;21.60;100707.94;5012455;28;96688;-83
2023/07/08 09:28:44;;;;;;;16.23;15.23;;;;;;;34.79;20.91;100713.88;5010351;28;96649;-83
2023/07/08 09:31:23;;;;;;;16.42;15.27;;;;;;;34.84;20.58;100705.91;5011947;28;99106;-84
2023/07/08 09:33:51;;;;;;;16.77;15.68;;;;;;;34.38;20.97;100706.44;5002207;28;98645;-80
2023/07/08 09:36:24;;;;;;;17.02;15.82;;;;;;;33.97;21.38;100704.41;4999951;28;97309;-80
2023/07/08 09:38:50;;;;;;;16.33;15.32;;;;;;;33.36;21.85;100709.41;5013014;28;97529;-79
2023/07/08 09:41:30;;;;;;;16.75;15.65;;;;;;;33.71;21.18;100706.91;5012014;28;98800;-79
2023/07/08 09:44:19;;;;;;;17.85;16.65;;;;;;;33.51;21.70;100701.22;5010046;28;98779;-77
2023/07/08 09:46:45;;;;;;;16.50;15.40;;;;;;;33.53;22.14;100689.13;5010541;28;97825;-78
2023/07/08 09:49:20;;;;;;;17.50;16.40;;;;;;;33.84;21.70;100695.31;5011332;28;97365;-78
2023/07/08 09:51:46;;;;;;;16.75;15.63;;;;;;;33.53;21.92;100680.13;4998121;28;98232;-79
2023/07/08 09:54:12;;;;;;;17.48;16.27;;;;;;;33.70;21.52;100688.88;5011611;28;98416;-78
2023/07/08 09:56:43;;;;;;;16.92;15.82;;;;;;;33.58;21.65;100683.13;5011463;28;96842;-78
2023/07/08 09:59:14;;;;;;;17.10;15.70;;;;;;;33.64;22.23;100685.06;5027110;28;96823;-78
2023/07/08 10:01:40;;;;;;;17.73;16.40;;;;;;;33.32;22.24;100687.22;5026749;28;98723;-78
2023/07/08 10:04:06;;;;;;;17.20;16.00;;;;;;;32.93;22.57;100684.84;5011451;28;98631;-78
2023/07/08 10:06:32;;;;;;;16.88;15.63;;;;;;;33.01;22.67;100684.75;5011805;28;96878;-78
2023/07/08 10:09:04;;;;;;;17.95;16.65;;;;;;;32.61;23.31;100695.06;5011972;28;96785;-78
2023/07/08 10:11:40;;;;;;;16.42;15.43;;;;;;;32.72;23.11;100690.19;4995973;28;98630;-78
2023/07/08 10:14:30;;;;;;;16.83;15.73;;;;;;;33.08;23.37;100682.97;5020812;28;98973;-78
2023/07/08 10:16:56;;;;;;;17.63;16.42;;;;;;;33.02;22.78;100681.00;5009918;28;97092;-78
2023/07/08 10:19:22;;;;;;;17.77;16.67;;;;;;;33.13;22.84;100685.97;5009789;28;96891;-78
2023/07/08 10:21:59;;;;;;;16.48;15.50;;;;;;;33.04;22.64;100680.81;5011023;28;98483;-78
2023/07/08 10:24:37;;;;;;;16.80;15.80;;;;;;;32.98;22.41;100679.66;5010677;28;98440;-78
2023/07/08 10:27:15;;;;;;;17.58;16.48;;;;;;;32.91;22.63;100668.72;5011454;28;96679;-78
2023/07/08 10:29:49;;;;;;;17.33;16.10;;;;;;;32.45;22.93;100677.06;5009335;28;96796;-78
2023/07/08 10:32:53;;;;;;;18.10;16.55;;;;;;;32.60;23.23;100676.22;5014900;28;97923;-78
2023/07/08 10:35:18;;;;;;;17.20;16.20;;;;;;;32.36;23.47;100675.44;5014782;28;98354;-78
2023/07/08 10:37:52;;;;;;;16.88;15.88;;;;;;;31.84;23.29;100669.97;5014838;28;96591;-78
2023/07/08 10:40:26;;;;;;;17.38;16.33;;;;;;;32.05;23.48;100672.84;5000775;28;96726;-78
2023/07/08 10:43:17;;;;;;;16.88;15.88;;;;;;;32.29;23.71;100679.06;5014048;28;98884;-78
2023/07/08 10:46:00;;;;;;;17.30;16.25;;;;;;;32.02;23.23;100674.06;5009686;28;98662;-78
2023/07/08 10:48:52;;;;;;;17.35;16.25;;;;;;;31.98;22.93;100667.31;5011414;28;97573;-78
2023/07/08 10:51:42;;;;;;;18.27;16.85;;;;;;;31.92;23.22;100678.09;5015107;28;96806;-77
2023/07/08 10:54:46;;;;;;;16.00;15.10;;;;;;;31.73;23.42;100671.25;5014175;28;99082;-78
2023/07/08 10:57:35;;;;;;;17.38;16.27;;;;;;;31.83;23.78;100665.59;4971678;28;99122;-77
2023/07/08 11:00:16;;;;;;;17.05;15.85;;;;;;;31.71;23.36;100676.03;4955617;28;96889;-78
2023/07/08 11:02:55;;;;;;;17.30;15.95;;;;;;;31.37;23.50;100661.00;5002454;28;97441;-78
2023/07/08 11:05:36;;;;;;;17.10;15.90;;;;;;;31.57;23.82;100666.78;5010415;28;98560;-77
2023/07/08 11:08:11;;;;;;;17.83;16.63;;;;;;;31.73;24.41;100663.94;5004470;28;98462;-78
2023/07/08 11:10:59;;;;;;;16.75;15.75;;;;;;;31.73;23.79;100653.09;5013762;28;96743;-78
2023/07/08 11:13:27;;;;;;;16.75;15.65;;;;;;;31.74;24.13;100652.09;5012744;28;96954;-78
2023/07/08 11:16:07;;;;;;;17.13;16.05;;;;;;;31.82;24.17;100647.59;5012712;28;99054;-78
2023/07/08 11:18:53;;;;;;;17.67;16.55;;;;;;;31.56;23.88;100652.41;5011935;28;98340;-78